Trans Exeter — 9HA2572 — position and weather

sailwx.info

Track history (hours):
 
Tides and Currents Weather Stations Pressure Air Temp Water Temp Dewpoint Dewpoint Depression Visibility Wind Speed Wind Dir Waves Ship Positions

Trans Exeter

Last reported at 2016-Feb-09 19:09 UTC. Time now 2016-Feb-12 03:36 UTC.
Position N 50°31' W 000°06'.

Length 118 m; draft 7 m.

Type: Ship (hazmat cat C). MMSI: 248908000.

Date/timePositionNaut miles runAvg speedWind from/ knotsBaromVisibWave heightAir tempDewpointWater temp
2016-Feb-09 19:09N 50°31' W 000°06'5413.5
2016-Feb-09 15:08N 50°55' E 001°10'712.1
2016-Feb-09 14:32N 50°60' E 001°19'1010.6
2016-Feb-09 13:33N 51°07' E 001°32'10 9.9
2016-Feb-09 12:33N 51°13' E 001°44'1211.7
2016-Feb-09 11:33N 51°22' E 001°56'1211.3
2016-Feb-09 10:31N 51°21' E 002°15'1313.8
2016-Feb-09 09:33N 51°23' E 002°36'1312.7
2016-Feb-09 08:34N 51°23' E 002°56'1312.5
2016-Feb-09 07:33N 51°25' E 003°16'1312.9
2016-Feb-09 06:33N 51°25' E 003°36'0 0.0
2016-Feb-09 05:31N 51°25' E 003°36'0 0.0
2016-Feb-09 04:31N 51°25' E 003°36'0 0.0
2016-Feb-09 03:31N 51°25' E 003°36'0 0.2
2016-Feb-09 02:31N 51°25' E 003°37'0 0.1
2016-Feb-09 01:31N 51°25' E 003°37'0 0.0
2016-Feb-09 00:31N 51°25' E 003°37'0 0.0
2016-Feb-08 23:31N 51°25' E 003°37'0 0.0
2016-Feb-08 22:31N 51°25' E 003°37'0 0.0
2016-Feb-08 21:28N 51°25' E 003°37'0 0.2
2016-Feb-08 20:33N 51°25' E 003°36'7 7.1
2016-Feb-08 19:33N 51°21' E 003°46'1 0.5
2016-Feb-08 18:33N 51°21' E 003°46'0 0.0
2016-Feb-08 17:31N 51°21' E 003°46'0 0.0
2016-Feb-08 16:31N 51°21' E 003°46'0 0.0
2016-Feb-08 15:31N 51°21' E 003°46'0 0.0
2016-Feb-08 14:31N 51°21' E 003°46'0 0.0
2016-Feb-08 13:31N 51°21' E 003°46'0 0.0
2016-Feb-08 12:31N 51°21' E 003°46'0 0.0
2016-Feb-08 11:31N 51°21' E 003°46'0 0.0
2016-Feb-08 10:31N 51°21' E 003°46'0 0.0
2016-Feb-08 09:25N 51°21' E 003°46'0 0.0
2016-Feb-08 08:31N 51°21' E 003°46'0 0.0
2016-Feb-08 07:19N 51°21' E 003°46'0 0.0
2016-Feb-08 06:31N 51°21' E 003°46'0 0.0
2016-Feb-08 05:31N 51°21' E 003°46'0 0.0
2016-Feb-08 04:31N 51°21' E 003°46'0 0.0
2016-Feb-08 03:31N 51°21' E 003°46'0 0.0
2016-Feb-08 02:31N 51°21' E 003°46'0 0.0
2016-Feb-08 01:31N 51°21' E 003°46'0 0.0
2016-Feb-08 00:31N 51°21' E 003°46'0 0.0
2016-Feb-07 23:31N 51°21' E 003°46'0 0.0
2016-Feb-07 22:31N 51°21' E 003°46'0 0.0
2016-Feb-07 21:31N 51°21' E 003°46'0 0.0
2016-Feb-07 20:31N 51°21' E 003°46'0 0.0
2016-Feb-07 19:31N 51°21' E 003°46'0 0.0
2016-Feb-07 18:31N 51°21' E 003°46'0 0.0
2016-Feb-07 17:28N 51°21' E 003°46'0 0.0
2016-Feb-07 16:31N 51°21' E 003°46'0 0.0
2016-Feb-07 15:31N 51°21' E 003°46'0 0.0
2016-Feb-07 14:31N 51°21' E 003°46'0 0.0
2016-Feb-07 13:31N 51°21' E 003°46'0 0.0
2016-Feb-07 12:31N 51°21' E 003°46'0 0.0
2016-Feb-07 11:34N 51°21' E 003°46'0 0.0
2016-Feb-07 10:34N 51°21' E 003°46'0 0.0
2016-Feb-07 09:33N 51°21' E 003°46'1 1.0
2016-Feb-07 08:33N 51°21' E 003°48'5 5.3
2016-Feb-07 07:33N 51°22' E 003°56'5 4.6
2016-Feb-07 06:33N 51°23' E 004°03'8 7.7
2016-Feb-07 05:33N 51°21' E 004°15'5 5.3
2016-Feb-07 04:33N 51°16' E 004°17'0 0.0
2016-Feb-07 03:34N 51°16' E 004°17'1 0.9
2016-Feb-07 02:33N 51°16' E 004°15'0 0.0
2016-Feb-07 01:31N 51°16' E 004°15'0 0.0
2016-Feb-07 00:28N 51°16' E 004°15'0 0.0
2016-Feb-06 23:13N 51°16' E 004°15'0 0.0
2016-Feb-06 22:31N 51°16' E 004°15'0 0.0
2016-Feb-06 21:31N 51°16' E 004°15'0 0.0
2016-Feb-06 20:31N 51°16' E 004°15'0 0.0
2016-Feb-06 19:31N 51°16' E 004°15'0 0.0
2016-Feb-06 18:31N 51°16' E 004°15'0 0.0
2016-Feb-06 17:31N 51°16' E 004°15'0 0.0
2016-Feb-06 16:31N 51°16' E 004°15'0 0.0
2016-Feb-06 15:31N 51°16' E 004°15'0 0.0
2016-Feb-06 14:31N 51°16' E 004°15'0 0.0
2016-Feb-06 13:19N 51°16' E 004°15'0 0.0
2016-Feb-06 12:31N 51°16' E 004°15'0 0.0
2016-Feb-06 10:31N 51°16' E 004°15'0 0.0
2016-Feb-06 09:25N 51°16' E 004°15'0 0.0
2016-Feb-06 08:31N 51°16' E 004°15'0 0.0
2016-Feb-06 07:19N 51°16' E 004°15'0 0.0
2016-Feb-06 05:28N 51°16' E 004°15'0 0.0
2016-Feb-06 03:22N 51°16' E 004°15'0 0.0
2016-Feb-06 01:25N 51°16' E 004°15'0 0.0
2016-Feb-06 00:25N 51°16' E 004°15'0 0.0
2016-Feb-05 23:31N 51°16' E 004°15'0 0.0
2016-Feb-05 22:25N 51°16' E 004°15'0 0.0
2016-Feb-05 21:31N 51°16' E 004°15'0 0.0
2016-Feb-05 20:30N 51°16' E 004°15'0 0.0
2016-Feb-05 19:27N 51°16' E 004°15'0 0.0
2016-Feb-05 18:33N 51°16' E 004°15'0 0.0
2016-Feb-05 17:30N 51°16' E 004°15'0 0.0
2016-Feb-05 16:09N 51°16' E 004°15'0 0.0
2016-Feb-05 15:33N 51°16' E 004°15'0 0.0
2016-Feb-05 14:24N 51°16' E 004°15'0 0.0
2016-Feb-05 13:30N 51°16' E 004°15'0 0.0
2016-Feb-05 12:30N 51°16' E 004°15'0 0.0
2016-Feb-05 11:12N 51°16' E 004°15'0 0.0
2016-Feb-05 10:33N 51°16' E 004°15'0 0.0
2016-Feb-05 09:33N 51°16' E 004°15'0 0.0
2016-Feb-05 08:30N 51°16' E 004°15'0 0.0
2016-Feb-05 07:30N 51°16' E 004°15'0 0.0
2016-Feb-05 06:24N 51°16' E 004°15'0 0.0
2016-Feb-05 05:33N 51°16' E 004°15'0 0.0
2016-Feb-05 04:33N 51°16' E 004°15'0 0.0
2016-Feb-05 03:21N 51°16' E 004°15'0 0.0
2016-Feb-05 02:33N 51°16' E 004°15'0 0.0
2016-Feb-05 01:18N 51°16' E 004°15'0 0.0
2016-Feb-05 00:30N 51°16' E 004°15'0 0.0
2016-Feb-04 23:30N 51°16' E 004°15'0 0.0
2016-Feb-04 22:33N 51°16' E 004°15'0 0.0
2016-Feb-04 21:30N 51°16' E 004°15'0 0.0
2016-Feb-04 18:24N 51°16' E 004°15'0 0.0
2016-Feb-04 17:24N 51°16' E 004°15'0 0.0
2016-Feb-04 16:30N 51°16' E 004°15'0 0.0
2016-Feb-04 15:18N 51°16' E 004°15'0 0.0
2016-Feb-04 10:33N 51°16' E 004°15'0 0.3
2016-Feb-04 09:33N 51°16' E 004°16'0 0.5
2016-Feb-04 08:33N 51°16' E 004°17'2 2.0
2016-Feb-04 07:33N 51°18' E 004°18'1 0.7
2016-Feb-04 06:32N 51°18' E 004°17'0 0.0
2016-Feb-04 05:23N 51°18' E 004°17'0 0.0
2016-Feb-04 04:26N 51°18' E 004°17'0 0.0
2016-Feb-04 03:11N 51°18' E 004°17'0 0.0
2016-Feb-04 02:32N 51°18' E 004°17'0 0.0
2016-Feb-04 01:29N 51°18' E 004°17'0 0.0
2016-Feb-04 00:32N 51°18' E 004°17'0 0.0
2016-Feb-03 23:32N 51°18' E 004°17'0 0.0
2016-Feb-03 22:29N 51°18' E 004°17'0 0.0
2016-Feb-03 21:29N 51°18' E 004°17'0 0.0
2016-Feb-03 19:32N 51°18' E 004°17'0 0.0
2016-Feb-03 15:17N 51°18' E 004°17'0 0.0
2016-Feb-03 14:29N 51°18' E 004°17'0 0.0
2016-Feb-03 13:05N 51°18' E 004°17'0 0.5
2016-Feb-03 12:33N 51°18' E 004°17'3 2.6
2016-Feb-03 11:34N 51°21' E 004°17'1 1.3
2016-Feb-03 10:33N 51°20' E 004°18'2 2.1
2016-Feb-03 09:33N 51°18' E 004°20'0 0.0
2016-Feb-03 08:32N 51°18' E 004°20'0 0.0
2016-Feb-03 07:32N 51°18' E 004°20'0 0.0
2016-Feb-03 06:26N 51°18' E 004°20'0 0.0
2016-Feb-03 05:26N 51°18' E 004°20'0 0.0
2016-Feb-03 04:32N 51°18' E 004°20'0 0.0
2016-Feb-03 03:31N 51°18' E 004°20'0 0.0
2016-Feb-03 02:31N 51°18' E 004°20'0 0.0
2016-Feb-03 01:31N 51°18' E 004°20'0 0.0
2016-Feb-03 00:31N 51°18' E 004°20'0 0.0
2016-Feb-02 23:31N 51°18' E 004°20'0 0.0
2016-Feb-02 22:31N 51°18' E 004°20'0 0.0
2016-Feb-02 21:28N 51°18' E 004°20'0 0.0
2016-Feb-02 20:31N 51°18' E 004°20'0 0.0
2016-Feb-02 19:31N 51°18' E 004°20'0 0.0
2016-Feb-02 18:25N 51°18' E 004°20'0 0.0
2016-Feb-02 17:28N 51°18' E 004°20'0 0.0
2016-Feb-02 16:30N 51°18' E 004°20'1 1.2
2016-Feb-02 15:34N 51°17' E 004°20'1 0.8
2016-Feb-02 14:34N 51°17' E 004°19'8 7.9
2016-Feb-02 13:31N 51°23' E 004°09'7 7.7
2016-Feb-02 12:34N 51°25' E 003°58'9 8.6
2016-Feb-02 11:34N 51°22' E 003°45'8 8.3
2016-Feb-02 10:34N 51°26' E 003°33'9 9.2
2016-Feb-02 09:33N 51°24' E 003°18'1010.0
2016-Feb-02 08:33N 51°24' E 003°02'1111.1
2016-Feb-02 07:32N 51°22' E 002°44'9 8.5
2016-Feb-02 06:31N 51°22' E 002°30'9 9.4
2016-Feb-02 05:31N 51°18' E 002°17'1313.4
2016-Feb-02 04:33N 51°11' E 001°59'1414.4
2016-Feb-02 03:34N 51°02' E 001°41'  
Track history (hours):
 
Tides and Currents Weather Stations Pressure Air Temp Water Temp Dewpoint Dewpoint Depression Visibility Wind Speed Wind Dir Waves Ship Positions

Trans Exeter

Last reported at 2016-Feb-09 19:09 UTC. Time now 2016-Feb-12 03:36 UTC.
Position N 50°31' W 000°06'.

Length 118 m; draft 7 m.

Type: Ship (hazmat cat C). MMSI: 248908000.

Date/timePositionNaut miles runAvg speedWind from/ knotsBaromVisibWave heightAir tempDewpointWater temp
2016-Feb-09 19:09N 50°31' W 000°06'5413.5
2016-Feb-09 15:08N 50°55' E 001°10'712.1
2016-Feb-09 14:32N 50°60' E 001°19'1010.6
2016-Feb-09 13:33N 51°07' E 001°32'10 9.9
2016-Feb-09 12:33N 51°13' E 001°44'1211.7
2016-Feb-09 11:33N 51°22' E 001°56'1211.3
2016-Feb-09 10:31N 51°21' E 002°15'1313.8
2016-Feb-09 09:33N 51°23' E 002°36'1312.7
2016-Feb-09 08:34N 51°23' E 002°56'1312.5
2016-Feb-09 07:33N 51°25' E 003°16'1312.9
2016-Feb-09 06:33N 51°25' E 003°36'0 0.0
2016-Feb-09 05:31N 51°25' E 003°36'0 0.0
2016-Feb-09 04:31N 51°25' E 003°36'0 0.0
2016-Feb-09 03:31N 51°25' E 003°36'0 0.2
2016-Feb-09 02:31N 51°25' E 003°37'0 0.1
2016-Feb-09 01:31N 51°25' E 003°37'0 0.0
2016-Feb-09 00:31N 51°25' E 003°37'0 0.0
2016-Feb-08 23:31N 51°25' E 003°37'0 0.0
2016-Feb-08 22:31N 51°25' E 003°37'0 0.0
2016-Feb-08 21:28N 51°25' E 003°37'0 0.2
2016-Feb-08 20:33N 51°25' E 003°36'7 7.1
2016-Feb-08 19:33N 51°21' E 003°46'1 0.5
2016-Feb-08 18:33N 51°21' E 003°46'0 0.0
2016-Feb-08 17:31N 51°21' E 003°46'0 0.0
2016-Feb-08 16:31N 51°21' E 003°46'0 0.0
2016-Feb-08 15:31N 51°21' E 003°46'0 0.0
2016-Feb-08 14:31N 51°21' E 003°46'0 0.0
2016-Feb-08 13:31N 51°21' E 003°46'0 0.0
2016-Feb-08 12:31N 51°21' E 003°46'0 0.0
2016-Feb-08 11:31N 51°21' E 003°46'0 0.0
2016-Feb-08 10:31N 51°21' E 003°46'0 0.0
2016-Feb-08 09:25N 51°21' E 003°46'0 0.0
2016-Feb-08 08:31N 51°21' E 003°46'0 0.0
2016-Feb-08 07:19N 51°21' E 003°46'0 0.0
2016-Feb-08 06:31N 51°21' E 003°46'0 0.0
2016-Feb-08 05:31N 51°21' E 003°46'0 0.0
2016-Feb-08 04:31N 51°21' E 003°46'0 0.0
2016-Feb-08 03:31N 51°21' E 003°46'0 0.0
2016-Feb-08 02:31N 51°21' E 003°46'0 0.0
2016-Feb-08 01:31N 51°21' E 003°46'0 0.0
2016-Feb-08 00:31N 51°21' E 003°46'0 0.0
2016-Feb-07 23:31N 51°21' E 003°46'0 0.0
2016-Feb-07 22:31N 51°21' E 003°46'0 0.0
2016-Feb-07 21:31N 51°21' E 003°46'0 0.0
2016-Feb-07 20:31N 51°21' E 003°46'0 0.0
2016-Feb-07 19:31N 51°21' E 003°46'0 0.0
2016-Feb-07 18:31N 51°21' E 003°46'0 0.0
2016-Feb-07 17:28N 51°21' E 003°46'0 0.0
2016-Feb-07 16:31N 51°21' E 003°46'0 0.0
2016-Feb-07 15:31N 51°21' E 003°46'0 0.0
2016-Feb-07 14:31N 51°21' E 003°46'0 0.0
2016-Feb-07 13:31N 51°21' E 003°46'0 0.0
2016-Feb-07 12:31N 51°21' E 003°46'0 0.0
2016-Feb-07 11:34N 51°21' E 003°46'0 0.0
2016-Feb-07 10:34N 51°21' E 003°46'0 0.0
2016-Feb-07 09:33N 51°21' E 003°46'1 1.0
2016-Feb-07 08:33N 51°21' E 003°48'5 5.3
2016-Feb-07 07:33N 51°22' E 003°56'5 4.6
2016-Feb-07 06:33N 51°23' E 004°03'8 7.7
2016-Feb-07 05:33N 51°21' E 004°15'5 5.3
2016-Feb-07 04:33N 51°16' E 004°17'0 0.0
2016-Feb-07 03:34N 51°16' E 004°17'1 0.9
2016-Feb-07 02:33N 51°16' E 004°15'0 0.0
2016-Feb-07 01:31N 51°16' E 004°15'0 0.0
2016-Feb-07 00:28N 51°16' E 004°15'0 0.0
2016-Feb-06 23:13N 51°16' E 004°15'0 0.0
2016-Feb-06 22:31N 51°16' E 004°15'0 0.0
2016-Feb-06 21:31N 51°16' E 004°15'0 0.0
2016-Feb-06 20:31N 51°16' E 004°15'0 0.0
2016-Feb-06 19:31N 51°16' E 004°15'0 0.0
2016-Feb-06 18:31N 51°16' E 004°15'0 0.0
2016-Feb-06 17:31N 51°16' E 004°15'0 0.0
2016-Feb-06 16:31N 51°16' E 004°15'0 0.0
2016-Feb-06 15:31N 51°16' E 004°15'0 0.0
2016-Feb-06 14:31N 51°16' E 004°15'0 0.0
2016-Feb-06 13:19N 51°16' E 004°15'0 0.0
2016-Feb-06 12:31N 51°16' E 004°15'0 0.0
2016-Feb-06 10:31N 51°16' E 004°15'0 0.0
2016-Feb-06 09:25N 51°16' E 004°15'0 0.0
2016-Feb-06 08:31N 51°16' E 004°15'0 0.0
2016-Feb-06 07:19N 51°16' E 004°15'0 0.0
2016-Feb-06 05:28N 51°16' E 004°15'0 0.0
2016-Feb-06 03:22N 51°16' E 004°15'0 0.0
2016-Feb-06 01:25N 51°16' E 004°15'0 0.0
2016-Feb-06 00:25N 51°16' E 004°15'0 0.0
2016-Feb-05 23:31N 51°16' E 004°15'0 0.0
2016-Feb-05 22:25N 51°16' E 004°15'0 0.0
2016-Feb-05 21:31N 51°16' E 004°15'0 0.0
2016-Feb-05 20:30N 51°16' E 004°15'0 0.0
2016-Feb-05 19:27N 51°16' E 004°15'0 0.0
2016-Feb-05 18:33N 51°16' E 004°15'0 0.0
2016-Feb-05 17:30N 51°16' E 004°15'0 0.0
2016-Feb-05 16:09N 51°16' E 004°15'0 0.0
2016-Feb-05 15:33N 51°16' E 004°15'0 0.0
2016-Feb-05 14:24N 51°16' E 004°15'0 0.0
2016-Feb-05 13:30N 51°16' E 004°15'0 0.0
2016-Feb-05 12:30N 51°16' E 004°15'0 0.0
2016-Feb-05 11:12N 51°16' E 004°15'0 0.0
2016-Feb-05 10:33N 51°16' E 004°15'0 0.0
2016-Feb-05 09:33N 51°16' E 004°15'0 0.0
2016-Feb-05 08:30N 51°16' E 004°15'0 0.0
2016-Feb-05 07:30N 51°16' E 004°15'0 0.0
2016-Feb-05 06:24N 51°16' E 004°15'0 0.0
2016-Feb-05 05:33N 51°16' E 004°15'0 0.0
2016-Feb-05 04:33N 51°16' E 004°15'0 0.0
2016-Feb-05 03:21N 51°16' E 004°15'0 0.0
2016-Feb-05 02:33N 51°16' E 004°15'0 0.0
2016-Feb-05 01:18N 51°16' E 004°15'0 0.0
2016-Feb-05 00:30N 51°16' E 004°15'0 0.0
2016-Feb-04 23:30N 51°16' E 004°15'0 0.0
2016-Feb-04 22:33N 51°16' E 004°15'0 0.0
2016-Feb-04 21:30N 51°16' E 004°15'0 0.0
2016-Feb-04 18:24N 51°16' E 004°15'0 0.0
2016-Feb-04 17:24N 51°16' E 004°15'0 0.0
2016-Feb-04 16:30N 51°16' E 004°15'0 0.0
2016-Feb-04 15:18N 51°16' E 004°15'0 0.0
2016-Feb-04 10:33N 51°16' E 004°15'0 0.3
2016-Feb-04 09:33N 51°16' E 004°16'0 0.5
2016-Feb-04 08:33N 51°16' E 004°17'2 2.0
2016-Feb-04 07:33N 51°18' E 004°18'1 0.7
2016-Feb-04 06:32N 51°18' E 004°17'0 0.0
2016-Feb-04 05:23N 51°18' E 004°17'0 0.0
2016-Feb-04 04:26N 51°18' E 004°17'0 0.0
2016-Feb-04 03:11N 51°18' E 004°17'0 0.0
2016-Feb-04 02:32N 51°18' E 004°17'0 0.0
2016-Feb-04 01:29N 51°18' E 004°17'0 0.0
2016-Feb-04 00:32N 51°18' E 004°17'0 0.0
2016-Feb-03 23:32N 51°18' E 004°17'0 0.0
2016-Feb-03 22:29N 51°18' E 004°17'0 0.0
2016-Feb-03 21:29N 51°18' E 004°17'0 0.0
2016-Feb-03 19:32N 51°18' E 004°17'0 0.0
2016-Feb-03 15:17N 51°18' E 004°17'0 0.0
2016-Feb-03 14:29N 51°18' E 004°17'0 0.0
2016-Feb-03 13:05N 51°18' E 004°17'0 0.5
2016-Feb-03 12:33N 51°18' E 004°17'3 2.6
2016-Feb-03 11:34N 51°21' E 004°17'1 1.3
2016-Feb-03 10:33N 51°20' E 004°18'2 2.1
2016-Feb-03 09:33N 51°18' E 004°20'0 0.0
2016-Feb-03 08:32N 51°18' E 004°20'0 0.0
2016-Feb-03 07:32N 51°18' E 004°20'0 0.0
2016-Feb-03 06:26N 51°18' E 004°20'0 0.0
2016-Feb-03 05:26N 51°18' E 004°20'0 0.0
2016-Feb-03 04:32N 51°18' E 004°20'0 0.0
2016-Feb-03 03:31N 51°18' E 004°20'0 0.0
2016-Feb-03 02:31N 51°18' E 004°20'0 0.0
2016-Feb-03 01:31N 51°18' E 004°20'0 0.0
2016-Feb-03 00:31N 51°18' E 004°20'0 0.0
2016-Feb-02 23:31N 51°18' E 004°20'0 0.0
2016-Feb-02 22:31N 51°18' E 004°20'0 0.0
2016-Feb-02 21:28N 51°18' E 004°20'0 0.0
2016-Feb-02 20:31N 51°18' E 004°20'0 0.0
2016-Feb-02 19:31N 51°18' E 004°20'0 0.0
2016-Feb-02 18:25N 51°18' E 004°20'0 0.0
2016-Feb-02 17:28N 51°18' E 004°20'0 0.0
2016-Feb-02 16:30N 51°18' E 004°20'1 1.2
2016-Feb-02 15:34N 51°17' E 004°20'1 0.8
2016-Feb-02 14:34N 51°17' E 004°19'8 7.9
2016-Feb-02 13:31N 51°23' E 004°09'7 7.7
2016-Feb-02 12:34N 51°25' E 003°58'9 8.6
2016-Feb-02 11:34N 51°22' E 003°45'8 8.3
2016-Feb-02 10:34N 51°26' E 003°33'9 9.2
2016-Feb-02 09:33N 51°24' E 003°18'1010.0
2016-Feb-02 08:33N 51°24' E 003°02'1111.1
2016-Feb-02 07:32N 51°22' E 002°44'9 8.5
2016-Feb-02 06:31N 51°22' E 002°30'9 9.4
2016-Feb-02 05:31N 51°18' E 002°17'1313.4
2016-Feb-02 04:33N 51°11' E 001°59'1414.4
2016-Feb-02 03:34N 51°02' E 001°41'  

Dump ship's entire track history